Weather at Aviosuperficie La Speziana

Public forecast

Using degrees Celsius for public forecast. Weather courtesy of forecast.io.

Closest aviation weather report (METAR) to Aviosuperficie La Speziana

Closest report is Milano Linate Airport, 19.4 nm (35.8 km) N. Retrieved 2020/11/25 01:20 UTC (0 seconds ago):

LIML 250120Z 02001KT 8000 R36/1400U MIFG NSC 01/01 Q1024 NOSIG

Closest aviation forecast (TAF) to Aviosuperficie La Speziana

Closest forecast is Milano Linate Airport, 19.4 nm (35.8 km) N. Retrieved 2020-11-25 00:00 UTC (1 hour ago):

TAF LIML 242300Z 2500/2524 VRB04KT 7000 NSC TEMPO 2500/2506 0500 FG BKN002